sensor_id;sensor_type;location;lat;lon;timestamp;P1;durP1;ratioP1;P2;durP2;ratioP2
46334;SDS011;32051;48.882;9.210;2022-10-31T00:01:39;21.75;;;7.38;;
46334;SDS011;32051;48.882;9.210;2022-10-31T00:04:05;13.35;;;7.75;;
46334;SDS011;32051;48.882;9.210;2022-10-31T00:06:31;20.23;;;7.85;;
46334;SDS011;32051;48.882;9.210;2022-10-31T00:08:58;9.20;;;5.95;;
46334;SDS011;32051;48.882;9.210;2022-10-31T00:11:25;17.73;;;6.75;;
46334;SDS011;32051;48.882;9.210;2022-10-31T00:13:51;18.13;;;8.60;;
46334;SDS011;32051;48.882;9.210;2022-10-31T00:16:19;10.70;;;7.50;;
46334;SDS011;32051;48.882;9.210;2022-10-31T00:18:49;17.77;;;8.45;;
46334;SDS011;32051;48.882;9.210;2022-10-31T00:21:15;17.50;;;8.50;;
46334;SDS011;32051;48.882;9.210;2022-10-31T00:23:41;12.20;;;8.98;;
46334;SDS011;32051;48.882;9.210;2022-10-31T00:26:07;19.48;;;9.45;;
46334;SDS011;32051;48.882;9.210;2022-10-31T00:28:34;16.55;;;9.45;;
46334;SDS011;32051;48.882;9.210;2022-10-31T00:31:03;18.77;;;7.57;;
46334;SDS011;32051;48.882;9.210;2022-10-31T00:33:32;16.52;;;9.38;;
46334;SDS011;32051;48.882;9.210;2022-10-31T00:35:58;15.85;;;8.68;;
46334;SDS011;32051;48.882;9.210;2022-10-31T00:38:24;20.63;;;9.10;;
46334;SDS011;32051;48.882;9.210;2022-10-31T00:40:50;22.52;;;8.45;;
46334;SDS011;32051;48.882;9.210;2022-10-31T00:43:16;16.80;;;7.28;;
46334;SDS011;32051;48.882;9.210;2022-10-31T00:45:43;16.10;;;8.20;;
46334;SDS011;32051;48.882;9.210;2022-10-31T00:48:09;17.15;;;9.00;;
46334;SDS011;32051;48.882;9.210;2022-10-31T00:50:35;23.15;;;8.18;;
46334;SDS011;32051;48.882;9.210;2022-10-31T00:53:01;13.65;;;7.63;;
46334;SDS011;32051;48.882;9.210;2022-10-31T00:55:28;25.08;;;9.48;;
46334;SDS011;32051;48.882;9.210;2022-10-31T00:57:54;26.25;;;9.10;;
46334;SDS011;32051;48.882;9.210;2022-10-31T01:00:20;17.73;;;7.93;;
46334;SDS011;32051;48.882;9.210;2022-10-31T01:02:47;21.27;;;8.27;;
46334;SDS011;32051;48.882;9.210;2022-10-31T01:05:13;19.20;;;7.68;;
46334;SDS011;32051;48.882;9.210;2022-10-31T01:07:40;17.88;;;8.32;;
46334;SDS011;32051;48.882;9.210;2022-10-31T01:10:09;16.77;;;8.13;;
46334;SDS011;32051;48.882;9.210;2022-10-31T01:12:39;13.63;;;8.40;;
46334;SDS011;32051;48.882;9.210;2022-10-31T01:15:05;13.77;;;8.88;;
46334;SDS011;32051;48.882;9.210;2022-10-31T01:17:33;23.08;;;9.05;;
46334;SDS011;32051;48.882;9.210;2022-10-31T01:19:59;15.98;;;8.85;;
46334;SDS011;32051;48.882;9.210;2022-10-31T01:22:26;32.22;;;9.38;;
46334;SDS011;32051;48.882;9.210;2022-10-31T01:24:52;19.42;;;8.90;;
46334;SDS011;32051;48.882;9.210;2022-10-31T01:27:18;19.25;;;8.73;;
46334;SDS011;32051;48.882;9.210;2022-10-31T01:29:44;23.73;;;8.45;;
46334;SDS011;32051;48.882;9.210;2022-10-31T01:32:11;11.48;;;8.57;;
46334;SDS011;32051;48.882;9.210;2022-10-31T01:34:37;23.27;;;8.77;;
46334;SDS011;32051;48.882;9.210;2022-10-31T01:37:03;15.05;;;7.68;;
46334;SDS011;32051;48.882;9.210;2022-10-31T01:39:29;15.73;;;8.32;;
46334;SDS011;32051;48.882;9.210;2022-10-31T01:41:55;10.23;;;7.50;;
46334;SDS011;32051;48.882;9.210;2022-10-31T01:49:17;16.00;;;7.35;;
46334;SDS011;32051;48.882;9.210;2022-10-31T01:51:46;14.10;;;7.50;;
46334;SDS011;32051;48.882;9.210;2022-10-31T01:54:14;14.45;;;7.55;;
46334;SDS011;32051;48.882;9.210;2022-10-31T01:56:42;24.08;;;8.45;;
46334;SDS011;32051;48.882;9.210;2022-10-31T01:59:12;17.15;;;7.85;;
46334;SDS011;32051;48.882;9.210;2022-10-31T02:01:40;21.10;;;8.27;;
46334;SDS011;32051;48.882;9.210;2022-10-31T02:04:07;14.00;;;7.63;;
46334;SDS011;32051;48.882;9.210;2022-10-31T02:06:45;16.10;;;7.43;;
46334;SDS011;32051;48.882;9.210;2022-10-31T02:09:12;10.05;;;6.93;;
46334;SDS011;32051;48.882;9.210;2022-10-31T02:11:38;12.80;;;7.72;;
46334;SDS011;32051;48.882;9.210;2022-10-31T02:14:04;17.58;;;7.60;;
46334;SDS011;32051;48.882;9.210;2022-10-31T02:16:30;13.65;;;8.73;;
46334;SDS011;32051;48.882;9.210;2022-10-31T02:18:56;18.08;;;7.28;;
46334;SDS011;32051;48.882;9.210;2022-10-31T02:21:37;24.30;;;8.07;;
46334;SDS011;32051;48.882;9.210;2022-10-31T02:26:51;15.32;;;7.10;;
46334;SDS011;32051;48.882;9.210;2022-10-31T02:32:12;13.65;;;6.40;;
46334;SDS011;32051;48.882;9.210;2022-10-31T02:34:46;13.25;;;7.03;;
46334;SDS011;32051;48.882;9.210;2022-10-31T02:37:16;19.48;;;7.05;;
46334;SDS011;32051;48.882;9.210;2022-10-31T02:46:03;7.78;;;6.20;;
46334;SDS011;32051;48.882;9.210;2022-10-31T02:48:06;19.02;;;7.38;;
46334;SDS011;32051;48.882;9.210;2022-10-31T02:50:35;20.40;;;8.80;;
46334;SDS011;32051;48.882;9.210;2022-10-31T02:53:03;12.00;;;7.72;;
46334;SDS011;32051;48.882;9.210;2022-10-31T02:58:08;17.00;;;8.63;;
46334;SDS011;32051;48.882;9.210;2022-10-31T03:03:26;13.15;;;7.00;;
46334;SDS011;32051;48.882;9.210;2022-10-31T03:08:52;18.90;;;8.48;;
46334;SDS011;32051;48.882;9.210;2022-10-31T03:11:22;9.30;;;6.72;;
46334;SDS011;32051;48.882;9.210;2022-10-31T03:13:51;14.63;;;6.68;;
46334;SDS011;32051;48.882;9.210;2022-10-31T03:21:21;13.23;;;7.78;;
46334;SDS011;32051;48.882;9.210;2022-10-31T03:23:47;15.73;;;7.25;;
46334;SDS011;32051;48.882;9.210;2022-10-31T03:26:19;13.43;;;7.45;;
46334;SDS011;32051;48.882;9.210;2022-10-31T03:28:47;13.75;;;7.28;;
46334;SDS011;32051;48.882;9.210;2022-10-31T03:31:16;18.38;;;8.52;;
46334;SDS011;32051;48.882;9.210;2022-10-31T03:33:43;28.52;;;8.10;;
46334;SDS011;32051;48.882;9.210;2022-10-31T03:36:10;11.20;;;6.90;;
46334;SDS011;32051;48.882;9.210;2022-10-31T03:38:37;8.68;;;7.65;;
46334;SDS011;32051;48.882;9.210;2022-10-31T03:41:05;18.60;;;6.80;;
46334;SDS011;32051;48.882;9.210;2022-10-31T03:43:36;14.18;;;8.05;;
46334;SDS011;32051;48.882;9.210;2022-10-31T03:46:04;19.95;;;7.28;;
46334;SDS011;32051;48.882;9.210;2022-10-31T03:48:31;9.82;;;7.07;;
46334;SDS011;32051;48.882;9.210;2022-10-31T03:53:44;22.15;;;7.50;;
46334;SDS011;32051;48.882;9.210;2022-10-31T03:56:22;13.10;;;6.68;;
46334;SDS011;32051;48.882;9.210;2022-10-31T03:59:03;10.05;;;7.00;;
46334;SDS011;32051;48.882;9.210;2022-10-31T04:01:31;21.38;;;6.80;;
46334;SDS011;32051;48.882;9.210;2022-10-31T04:03:58;11.10;;;6.30;;
46334;SDS011;32051;48.882;9.210;2022-10-31T04:06:25;14.63;;;6.88;;
46334;SDS011;32051;48.882;9.210;2022-10-31T04:08:53;19.02;;;5.72;;
46334;SDS011;32051;48.882;9.210;2022-10-31T04:11:23;16.45;;;7.75;;
46334;SDS011;32051;48.882;9.210;2022-10-31T04:14:14;10.43;;;7.10;;
46334;SDS011;32051;48.882;9.210;2022-10-31T04:16:41;10.70;;;7.15;;
46334;SDS011;32051;48.882;9.210;2022-10-31T04:19:08;13.02;;;7.05;;
46334;SDS011;32051;48.882;9.210;2022-10-31T04:21:35;14.65;;;6.78;;
46334;SDS011;32051;48.882;9.210;2022-10-31T04:24:01;19.27;;;6.75;;
46334;SDS011;32051;48.882;9.210;2022-10-31T04:26:29;18.58;;;6.28;;
46334;SDS011;32051;48.882;9.210;2022-10-31T04:28:56;10.13;;;5.05;;
46334;SDS011;32051;48.882;9.210;2022-10-31T04:31:25;12.93;;;5.72;;
46334;SDS011;32051;48.882;9.210;2022-10-31T04:33:51;8.80;;;5.85;;
46334;SDS011;32051;48.882;9.210;2022-10-31T04:36:17;13.00;;;6.70;;
46334;SDS011;32051;48.882;9.210;2022-10-31T04:38:44;13.05;;;6.30;;
46334;SDS011;32051;48.882;9.210;2022-10-31T04:41:32;12.73;;;5.97;;
46334;SDS011;32051;48.882;9.210;2022-10-31T04:44:06;10.82;;;6.90;;
46334;SDS011;32051;48.882;9.210;2022-10-31T04:46:33;12.27;;;6.25;;
46334;SDS011;32051;48.882;9.210;2022-10-31T04:49:01;20.00;;;6.82;;
46334;SDS011;32051;48.882;9.210;2022-10-31T04:51:28;9.00;;;5.05;;
46334;SDS011;32051;48.882;9.210;2022-10-31T04:53:54;8.38;;;4.75;;
46334;SDS011;32051;48.882;9.210;2022-10-31T04:56:40;21.33;;;5.22;;
46334;SDS011;32051;48.882;9.210;2022-10-31T04:59:14;35.33;;;6.65;;
46334;SDS011;32051;48.882;9.210;2022-10-31T05:01:50;11.65;;;5.25;;
46334;SDS011;32051;48.882;9.210;2022-10-31T05:04:22;10.20;;;4.88;;
46334;SDS011;32051;48.882;9.210;2022-10-31T05:06:48;14.30;;;6.32;;
46334;SDS011;32051;48.882;9.210;2022-10-31T05:09:15;16.27;;;6.53;;
46334;SDS011;32051;48.882;9.210;2022-10-31T05:11:42;13.35;;;6.55;;
46334;SDS011;32051;48.882;9.210;2022-10-31T05:14:30;6.78;;;5.25;;
46334;SDS011;32051;48.882;9.210;2022-10-31T05:17:15;11.98;;;6.13;;
46334;SDS011;32051;48.882;9.210;2022-10-31T05:19:59;13.52;;;6.82;;
46334;SDS011;32051;48.882;9.210;2022-10-31T05:22:53;14.67;;;6.17;;
46334;SDS011;32051;48.882;9.210;2022-10-31T05:25:20;8.80;;;5.68;;
46334;SDS011;32051;48.882;9.210;2022-10-31T05:27:47;10.70;;;6.82;;
46334;SDS011;32051;48.882;9.210;2022-10-31T05:30:14;16.98;;;6.88;;
46334;SDS011;32051;48.882;9.210;2022-10-31T05:32:45;12.73;;;6.72;;
46334;SDS011;32051;48.882;9.210;2022-10-31T05:35:43;11.25;;;6.22;;
46334;SDS011;32051;48.882;9.210;2022-10-31T05:38:31;13.20;;;6.15;;
46334;SDS011;32051;48.882;9.210;2022-10-31T05:41:04;18.75;;;7.68;;
46334;SDS011;32051;48.882;9.210;2022-10-31T05:43:32;16.52;;;6.95;;
46334;SDS011;32051;48.882;9.210;2022-10-31T05:45:59;21.83;;;7.55;;
46334;SDS011;32051;48.882;9.210;2022-10-31T05:48:48;17.15;;;6.07;;
46334;SDS011;32051;48.882;9.210;2022-10-31T05:51:34;14.45;;;6.85;;
46334;SDS011;32051;48.882;9.210;2022-10-31T05:54:01;11.68;;;7.00;;
46334;SDS011;32051;48.882;9.210;2022-10-31T05:56:28;11.32;;;7.75;;
46334;SDS011;32051;48.882;9.210;2022-10-31T05:58:54;10.25;;;6.55;;
46334;SDS011;32051;48.882;9.210;2022-10-31T06:01:21;14.02;;;6.72;;
46334;SDS011;32051;48.882;9.210;2022-10-31T06:03:47;16.15;;;7.43;;
46334;SDS011;32051;48.882;9.210;2022-10-31T06:06:15;16.73;;;7.95;;
46334;SDS011;32051;48.882;9.210;2022-10-31T06:08:41;10.05;;;6.00;;
46334;SDS011;32051;48.882;9.210;2022-10-31T06:11:12;13.27;;;6.43;;
46334;SDS011;32051;48.882;9.210;2022-10-31T06:13:57;22.13;;;5.90;;
46334;SDS011;32051;48.882;9.210;2022-10-31T06:16:30;10.65;;;6.38;;
46334;SDS011;32051;48.882;9.210;2022-10-31T06:19:05;15.02;;;7.22;;
46334;SDS011;32051;48.882;9.210;2022-10-31T06:21:31;13.27;;;6.07;;
46334;SDS011;32051;48.882;9.210;2022-10-31T06:23:57;17.60;;;6.30;;
46334;SDS011;32051;48.882;9.210;2022-10-31T06:26:42;16.02;;;6.18;;
46334;SDS011;32051;48.882;9.210;2022-10-31T06:29:08;34.20;;;7.55;;
46334;SDS011;32051;48.882;9.210;2022-10-31T06:31:54;21.13;;;5.80;;
46334;SDS011;32051;48.882;9.210;2022-10-31T06:34:20;17.55;;;6.38;;
46334;SDS011;32051;48.882;9.210;2022-10-31T06:36:46;13.18;;;6.03;;
46334;SDS011;32051;48.882;9.210;2022-10-31T06:39:13;10.32;;;6.18;;
46334;SDS011;32051;48.882;9.210;2022-10-31T06:41:39;13.73;;;6.57;;
46334;SDS011;32051;48.882;9.210;2022-10-31T06:44:07;12.52;;;6.07;;
46334;SDS011;32051;48.882;9.210;2022-10-31T06:46:53;11.20;;;6.75;;
46334;SDS011;32051;48.882;9.210;2022-10-31T06:49:39;10.70;;;5.18;;
46334;SDS011;32051;48.882;9.210;2022-10-31T06:52:11;11.50;;;5.50;;
46334;SDS011;32051;48.882;9.210;2022-10-31T06:54:37;15.50;;;5.72;;
46334;SDS011;32051;48.882;9.210;2022-10-31T06:57:03;15.80;;;5.85;;
46334;SDS011;32051;48.882;9.210;2022-10-31T06:59:30;9.02;;;4.95;;
46334;SDS011;32051;48.882;9.210;2022-10-31T07:02:18;12.70;;;5.05;;
46334;SDS011;32051;48.882;9.210;2022-10-31T07:04:44;10.30;;;4.82;;
46334;SDS011;32051;48.882;9.210;2022-10-31T07:07:13;14.05;;;6.57;;
46334;SDS011;32051;48.882;9.210;2022-10-31T07:09:39;11.10;;;4.65;;
46334;SDS011;32051;48.882;9.210;2022-10-31T07:12:07;12.75;;;5.50;;
46334;SDS011;32051;48.882;9.210;2022-10-31T07:14:37;10.80;;;5.07;;
46334;SDS011;32051;48.882;9.210;2022-10-31T07:17:04;12.25;;;4.65;;
46334;SDS011;32051;48.882;9.210;2022-10-31T07:19:33;14.20;;;4.55;;
46334;SDS011;32051;48.882;9.210;2022-10-31T07:21:59;9.05;;;4.80;;
46334;SDS011;32051;48.882;9.210;2022-10-31T07:24:28;6.85;;;6.10;;
46334;SDS011;32051;48.882;9.210;2022-10-31T07:27:14;9.77;;;4.55;;
46334;SDS011;32051;48.882;9.210;2022-10-31T07:29:41;21.00;;;5.78;;
46334;SDS011;32051;48.882;9.210;2022-10-31T07:32:07;18.02;;;4.57;;
46334;SDS011;32051;48.882;9.210;2022-10-31T07:34:36;20.92;;;5.00;;
46334;SDS011;32051;48.882;9.210;2022-10-31T07:37:15;10.73;;;4.75;;
46334;SDS011;32051;48.882;9.210;2022-10-31T07:39:41;18.15;;;4.28;;
46334;SDS011;32051;48.882;9.210;2022-10-31T07:42:08;18.40;;;5.30;;
46334;SDS011;32051;48.882;9.210;2022-10-31T07:44:35;7.80;;;4.68;;
46334;SDS011;32051;48.882;9.210;2022-10-31T07:47:19;8.27;;;5.32;;
46334;SDS011;32051;48.882;9.210;2022-10-31T07:50:04;8.73;;;5.03;;
46334;SDS011;32051;48.882;9.210;2022-10-31T07:52:57;16.65;;;5.72;;
46334;SDS011;32051;48.882;9.210;2022-10-31T07:55:47;20.27;;;4.93;;
46334;SDS011;32051;48.882;9.210;2022-10-31T07:58:14;11.93;;;5.95;;
46334;SDS011;32051;48.882;9.210;2022-10-31T08:00:42;10.15;;;5.15;;
46334;SDS011;32051;48.882;9.210;2022-10-31T08:03:15;17.48;;;6.03;;
46334;SDS011;32051;48.882;9.210;2022-10-31T08:06:00;15.93;;;7.03;;
46334;SDS011;32051;48.882;9.210;2022-10-31T08:09:00;12.85;;;5.03;;
46334;SDS011;32051;48.882;9.210;2022-10-31T08:11:27;11.07;;;5.43;;
46334;SDS011;32051;48.882;9.210;2022-10-31T08:13:53;14.77;;;4.55;;
46334;SDS011;32051;48.882;9.210;2022-10-31T08:16:19;9.02;;;5.88;;
46334;SDS011;32051;48.882;9.210;2022-10-31T08:18:59;5.45;;;4.50;;
46334;SDS011;32051;48.882;9.210;2022-10-31T08:21:27;30.70;;;5.40;;
46334;SDS011;32051;48.882;9.210;2022-10-31T08:23:53;7.38;;;5.22;;
46334;SDS011;32051;48.882;9.210;2022-10-31T08:26:22;16.60;;;4.97;;
46334;SDS011;32051;48.882;9.210;2022-10-31T08:28:50;8.20;;;4.70;;
46334;SDS011;32051;48.882;9.210;2022-10-31T08:31:19;14.20;;;4.75;;
46334;SDS011;32051;48.882;9.210;2022-10-31T08:33:45;14.65;;;4.45;;
46334;SDS011;32051;48.882;9.210;2022-10-31T08:36:34;7.82;;;5.03;;
46334;SDS011;32051;48.882;9.210;2022-10-31T08:39:08;11.75;;;6.30;;
46334;SDS011;32051;48.882;9.210;2022-10-31T08:41:34;13.13;;;4.82;;
46334;SDS011;32051;48.882;9.210;2022-10-31T08:44:00;21.15;;;5.78;;
46334;SDS011;32051;48.882;9.210;2022-10-31T08:46:26;16.52;;;4.40;;
46334;SDS011;32051;48.882;9.210;2022-10-31T08:48:53;10.48;;;5.50;;
46334;SDS011;32051;48.882;9.210;2022-10-31T08:51:19;11.90;;;4.72;;
46334;SDS011;32051;48.882;9.210;2022-10-31T08:53:49;12.13;;;4.28;;
46334;SDS011;32051;48.882;9.210;2022-10-31T08:56:35;20.90;;;5.18;;
46334;SDS011;32051;48.882;9.210;2022-10-31T08:59:08;8.90;;;5.05;;
46334;SDS011;32051;48.882;9.210;2022-10-31T09:02:00;8.52;;;4.50;;
46334;SDS011;32051;48.882;9.210;2022-10-31T09:04:28;8.68;;;4.90;;
46334;SDS011;32051;48.882;9.210;2022-10-31T09:06:54;17.50;;;4.53;;
46334;SDS011;32051;48.882;9.210;2022-10-31T09:09:20;11.10;;;4.13;;
46334;SDS011;32051;48.882;9.210;2022-10-31T09:11:47;11.85;;;4.47;;
46334;SDS011;32051;48.882;9.210;2022-10-31T09:14:33;9.27;;;5.13;;
46334;SDS011;32051;48.882;9.210;2022-10-31T09:17:31;5.90;;;4.80;;
46334;SDS011;32051;48.882;9.210;2022-10-31T09:20:16;8.52;;;4.25;;
46334;SDS011;32051;48.882;9.210;2022-10-31T09:22:42;14.98;;;5.28;;
46334;SDS011;32051;48.882;9.210;2022-10-31T09:25:08;12.35;;;5.13;;
46334;SDS011;32051;48.882;9.210;2022-10-31T09:27:37;11.98;;;4.55;;
46334;SDS011;32051;48.882;9.210;2022-10-31T09:30:05;11.60;;;4.68;;
46334;SDS011;32051;48.882;9.210;2022-10-31T09:32:32;11.82;;;4.22;;
46334;SDS011;32051;48.882;9.210;2022-10-31T09:34:58;5.70;;;4.72;;
46334;SDS011;32051;48.882;9.210;2022-10-31T09:37:24;9.85;;;4.13;;
46334;SDS011;32051;48.882;9.210;2022-10-31T09:39:50;8.57;;;4.45;;
46334;SDS011;32051;48.882;9.210;2022-10-31T09:45:01;9.57;;;4.88;;
46334;SDS011;32051;48.882;9.210;2022-10-31T09:53:39;17.17;;;4.50;;
46334;SDS011;32051;48.882;9.210;2022-10-31T09:56:09;6.78;;;3.55;;
46334;SDS011;32051;48.882;9.210;2022-10-31T09:58:38;16.33;;;4.75;;
46334;SDS011;32051;48.882;9.210;2022-10-31T10:01:05;9.48;;;4.10;;
46334;SDS011;32051;48.882;9.210;2022-10-31T10:03:33;7.40;;;4.45;;
46334;SDS011;32051;48.882;9.210;2022-10-31T10:06:14;7.18;;;4.63;;
46334;SDS011;32051;48.882;9.210;2022-10-31T10:09:01;13.48;;;4.53;;
46334;SDS011;32051;48.882;9.210;2022-10-31T10:11:55;4.97;;;3.70;;
46334;SDS011;32051;48.882;9.210;2022-10-31T10:17:39;6.45;;;4.63;;
46334;SDS011;32051;48.882;9.210;2022-10-31T10:20:17;12.10;;;3.42;;
46334;SDS011;32051;48.882;9.210;2022-10-31T10:22:54;15.18;;;4.70;;
46334;SDS011;32051;48.882;9.210;2022-10-31T10:25:26;11.50;;;4.53;;
46334;SDS011;32051;48.882;9.210;2022-10-31T10:30:26;21.05;;;4.82;;
46334;SDS011;32051;48.882;9.210;2022-10-31T10:32:58;4.75;;;3.53;;
46334;SDS011;32051;48.882;9.210;2022-10-31T10:35:29;22.80;;;4.80;;
46334;SDS011;32051;48.882;9.210;2022-10-31T10:37:58;7.53;;;3.90;;
46334;SDS011;32051;48.882;9.210;2022-10-31T10:40:26;11.30;;;4.43;;
46334;SDS011;32051;48.882;9.210;2022-10-31T10:45:52;11.82;;;4.50;;
46334;SDS011;32051;48.882;9.210;2022-10-31T10:48:47;17.95;;;4.75;;
46334;SDS011;32051;48.882;9.210;2022-10-31T10:51:20;11.02;;;4.25;;
46334;SDS011;32051;48.882;9.210;2022-10-31T10:59:06;17.60;;;5.45;;
46334;SDS011;32051;48.882;9.210;2022-10-31T11:01:35;8.80;;;3.83;;
46334;SDS011;32051;48.882;9.210;2022-10-31T11:04:02;9.85;;;3.85;;
46334;SDS011;32051;48.882;9.210;2022-10-31T11:06:29;8.70;;;3.78;;
46334;SDS011;32051;48.882;9.210;2022-10-31T11:08:55;8.90;;;3.53;;
46334;SDS011;32051;48.882;9.210;2022-10-31T11:11:30;8.63;;;4.70;;
46334;SDS011;32051;48.882;9.210;2022-10-31T11:14:01;19.48;;;4.47;;
46334;SDS011;32051;48.882;9.210;2022-10-31T11:16:30;10.17;;;3.93;;
46334;SDS011;32051;48.882;9.210;2022-10-31T11:19:07;24.00;;;5.03;;
46334;SDS011;32051;48.882;9.210;2022-10-31T11:21:33;10.57;;;4.75;;
46334;SDS011;32051;48.882;9.210;2022-10-31T11:26:29;9.70;;;4.15;;
46334;SDS011;32051;48.882;9.210;2022-10-31T11:28:55;12.43;;;4.40;;
46334;SDS011;32051;48.882;9.210;2022-10-31T11:31:22;13.68;;;4.70;;
46334;SDS011;32051;48.882;9.210;2022-10-31T11:33:49;13.02;;;5.72;;
46334;SDS011;32051;48.882;9.210;2022-10-31T11:36:18;8.25;;;4.05;;
46334;SDS011;32051;48.882;9.210;2022-10-31T11:38:46;7.25;;;4.35;;
46334;SDS011;32051;48.882;9.210;2022-10-31T11:41:15;14.02;;;4.75;;
46334;SDS011;32051;48.882;9.210;2022-10-31T11:43:48;31.13;;;13.95;;
46334;SDS011;32051;48.882;9.210;2022-10-31T11:46:18;30.23;;;13.10;;
46334;SDS011;32051;48.882;9.210;2022-10-31T11:48:50;7.90;;;4.97;;
46334;SDS011;32051;48.882;9.210;2022-10-31T11:51:24;12.90;;;5.43;;
46334;SDS011;32051;48.882;9.210;2022-10-31T11:53:51;16.90;;;4.80;;
46334;SDS011;32051;48.882;9.210;2022-10-31T11:56:18;14.13;;;4.25;;
46334;SDS011;32051;48.882;9.210;2022-10-31T11:58:54;11.43;;;5.13;;
46334;SDS011;32051;48.882;9.210;2022-10-31T12:01:22;10.85;;;5.30;;
46334;SDS011;32051;48.882;9.210;2022-10-31T12:04:08;11.68;;;4.18;;
46334;SDS011;32051;48.882;9.210;2022-10-31T12:06:35;21.38;;;6.13;;
46334;SDS011;32051;48.882;9.210;2022-10-31T12:09:02;12.30;;;5.68;;
46334;SDS011;32051;48.882;9.210;2022-10-31T12:11:45;14.30;;;4.68;;
46334;SDS011;32051;48.882;9.210;2022-10-31T12:14:19;12.15;;;4.90;;
46334;SDS011;32051;48.882;9.210;2022-10-31T12:19:24;7.20;;;3.67;;
46334;SDS011;32051;48.882;9.210;2022-10-31T12:24:50;9.23;;;3.50;;
46334;SDS011;32051;48.882;9.210;2022-10-31T12:32:38;16.17;;;3.80;;
46334;SDS011;32051;48.882;9.210;2022-10-31T12:35:16;12.20;;;3.70;;
46334;SDS011;32051;48.882;9.210;2022-10-31T12:37:52;19.20;;;4.10;;
46334;SDS011;32051;48.882;9.210;2022-10-31T12:43:12;11.75;;;5.05;;
46334;SDS011;32051;48.882;9.210;2022-10-31T12:48:19;22.30;;;4.90;;
46334;SDS011;32051;48.882;9.210;2022-10-31T12:50:50;12.23;;;3.88;;
46334;SDS011;32051;48.882;9.210;2022-10-31T12:53:34;5.95;;;4.70;;
46334;SDS011;32051;48.882;9.210;2022-10-31T12:58:40;15.40;;;4.78;;
46334;SDS011;32051;48.882;9.210;2022-10-31T13:01:08;7.15;;;4.00;;
46334;SDS011;32051;48.882;9.210;2022-10-31T13:06:22;5.97;;;4.07;;
46334;SDS011;32051;48.882;9.210;2022-10-31T13:08:52;10.40;;;4.85;;
46334;SDS011;32051;48.882;9.210;2022-10-31T13:11:21;13.85;;;5.25;;
46334;SDS011;32051;48.882;9.210;2022-10-31T13:16:21;5.60;;;4.82;;
46334;SDS011;32051;48.882;9.210;2022-10-31T13:18:55;5.38;;;4.88;;
46334;SDS011;32051;48.882;9.210;2022-10-31T13:24:13;6.90;;;4.18;;
46334;SDS011;32051;48.882;9.210;2022-10-31T13:31:35;16.15;;;5.55;;
46334;SDS011;32051;48.882;9.210;2022-10-31T13:34:08;13.60;;;4.80;;
46334;SDS011;32051;48.882;9.210;2022-10-31T13:36:39;9.80;;;5.15;;
46334;SDS011;32051;48.882;9.210;2022-10-31T13:39:18;17.45;;;5.18;;
46334;SDS011;32051;48.882;9.210;2022-10-31T13:41:54;14.00;;;4.90;;
46334;SDS011;32051;48.882;9.210;2022-10-31T13:46:49;20.13;;;4.72;;
46334;SDS011;32051;48.882;9.210;2022-10-31T13:51:51;12.35;;;5.30;;
46334;SDS011;32051;48.882;9.210;2022-10-31T13:56:54;12.38;;;5.20;;
46334;SDS011;32051;48.882;9.210;2022-10-31T13:59:21;6.28;;;5.00;;
46334;SDS011;32051;48.882;9.210;2022-10-31T14:01:49;14.95;;;5.35;;
46334;SDS011;32051;48.882;9.210;2022-10-31T14:04:20;24.13;;;4.45;;
46334;SDS011;32051;48.882;9.210;2022-10-31T14:06:54;11.15;;;5.07;;
46334;SDS011;32051;48.882;9.210;2022-10-31T14:09:29;40.22;;;11.50;;
46334;SDS011;32051;48.882;9.210;2022-10-31T14:11:57;19.35;;;4.40;;
46334;SDS011;32051;48.882;9.210;2022-10-31T14:14:25;5.68;;;4.22;;
46334;SDS011;32051;48.882;9.210;2022-10-31T14:16:55;10.20;;;4.50;;
46334;SDS011;32051;48.882;9.210;2022-10-31T14:19:22;9.70;;;4.28;;
46334;SDS011;32051;48.882;9.210;2022-10-31T14:21:49;9.90;;;4.68;;
46334;SDS011;32051;48.882;9.210;2022-10-31T14:24:30;15.38;;;4.50;;
46334;SDS011;32051;48.882;9.210;2022-10-31T14:26:57;6.63;;;3.55;;
46334;SDS011;32051;48.882;9.210;2022-10-31T14:29:28;17.42;;;4.72;;
46334;SDS011;32051;48.882;9.210;2022-10-31T14:34:30;15.10;;;5.07;;
46334;SDS011;32051;48.882;9.210;2022-10-31T14:42:24;8.25;;;5.22;;
46334;SDS011;32051;48.882;9.210;2022-10-31T14:45:09;10.88;;;4.03;;
46334;SDS011;32051;48.882;9.210;2022-10-31T14:47:42;7.85;;;3.97;;
46334;SDS011;32051;48.882;9.210;2022-10-31T14:50:17;5.72;;;3.20;;
46334;SDS011;32051;48.882;9.210;2022-10-31T14:52:47;22.30;;;4.50;;
46334;SDS011;32051;48.882;9.210;2022-10-31T14:55:14;15.25;;;4.03;;
46334;SDS011;32051;48.882;9.210;2022-10-31T14:57:44;6.55;;;4.03;;
46334;SDS011;32051;48.882;9.210;2022-10-31T15:00:15;17.02;;;5.55;;
46334;SDS011;32051;48.882;9.210;2022-10-31T15:05:11;19.92;;;5.55;;
46334;SDS011;32051;48.882;9.210;2022-10-31T15:07:48;6.45;;;4.82;;
46334;SDS011;32051;48.882;9.210;2022-10-31T15:10:24;15.80;;;5.55;;
46334;SDS011;32051;48.882;9.210;2022-10-31T15:12:51;14.60;;;4.95;;
46334;SDS011;32051;48.882;9.210;2022-10-31T15:15:21;12.38;;;4.65;;
46334;SDS011;32051;48.882;9.210;2022-10-31T15:17:49;18.92;;;5.82;;
46334;SDS011;32051;48.882;9.210;2022-10-31T15:20:22;8.40;;;4.55;;
46334;SDS011;32051;48.882;9.210;2022-10-31T15:22:49;9.93;;;4.70;;
46334;SDS011;32051;48.882;9.210;2022-10-31T15:25:19;13.52;;;5.35;;
46334;SDS011;32051;48.882;9.210;2022-10-31T15:27:47;10.35;;;4.95;;
46334;SDS011;32051;48.882;9.210;2022-10-31T15:30:15;9.85;;;4.38;;
46334;SDS011;32051;48.882;9.210;2022-10-31T15:32:43;21.90;;;6.32;;
46334;SDS011;32051;48.882;9.210;2022-10-31T15:35:10;11.35;;;5.78;;
46334;SDS011;32051;48.882;9.210;2022-10-31T15:37:36;16.50;;;6.63;;
46334;SDS011;32051;48.882;9.210;2022-10-31T15:40:06;11.48;;;5.85;;
46334;SDS011;32051;48.882;9.210;2022-10-31T15:42:33;22.88;;;9.13;;
46334;SDS011;32051;48.882;9.210;2022-10-31T15:45:01;16.48;;;8.13;;
46334;SDS011;32051;48.882;9.210;2022-10-31T15:47:29;33.38;;;11.13;;
46334;SDS011;32051;48.882;9.210;2022-10-31T15:49:56;22.42;;;9.80;;
46334;SDS011;32051;48.882;9.210;2022-10-31T15:52:26;24.17;;;9.50;;
46334;SDS011;32051;48.882;9.210;2022-10-31T15:54:58;36.80;;;11.43;;
46334;SDS011;32051;48.882;9.210;2022-10-31T15:57:25;21.08;;;10.52;;
46334;SDS011;32051;48.882;9.210;2022-10-31T15:59:52;34.97;;;11.00;;
46334;SDS011;32051;48.882;9.210;2022-10-31T16:02:19;35.65;;;11.30;;
46334;SDS011;32051;48.882;9.210;2022-10-31T16:07:16;20.40;;;10.77;;
46334;SDS011;32051;48.882;9.210;2022-10-31T16:12:22;28.60;;;12.15;;
46334;SDS011;32051;48.882;9.210;2022-10-31T16:14:52;32.88;;;12.27;;
46334;SDS011;32051;48.882;9.210;2022-10-31T16:17:20;24.90;;;12.45;;
46334;SDS011;32051;48.882;9.210;2022-10-31T16:19:51;26.15;;;12.88;;
46334;SDS011;32051;48.882;9.210;2022-10-31T16:22:19;19.58;;;11.38;;
46334;SDS011;32051;48.882;9.210;2022-10-31T16:24:51;35.80;;;12.95;;
46334;SDS011;32051;48.882;9.210;2022-10-31T16:27:19;27.42;;;12.45;;
46334;SDS011;32051;48.882;9.210;2022-10-31T16:29:50;15.38;;;9.27;;
46334;SDS011;32051;48.882;9.210;2022-10-31T16:32:36;23.33;;;10.73;;
46334;SDS011;32051;48.882;9.210;2022-10-31T16:37:38;19.88;;;9.57;;
46334;SDS011;32051;48.882;9.210;2022-10-31T16:40:04;15.80;;;8.38;;
46334;SDS011;32051;48.882;9.210;2022-10-31T16:42:31;24.77;;;8.43;;
46334;SDS011;32051;48.882;9.210;2022-10-31T16:44:58;17.33;;;8.13;;
46334;SDS011;32051;48.882;9.210;2022-10-31T16:47:24;22.20;;;9.68;;
46334;SDS011;32051;48.882;9.210;2022-10-31T16:49:50;16.77;;;8.07;;
46334;SDS011;32051;48.882;9.210;2022-10-31T16:52:16;18.38;;;8.13;;